RYR215 LFBZ-EBCI
Flight info
| Callsign | RYR215 |
|---|---|
| Flight time | 1h 24m |
| Altitude | 34000 |
| Route | VAVIX DCT ADABI DCT BOKNO UN858 VANAD UN874 BAMES UT191 PODEM UN873 BAZOS DCT BELDI DCT VEKIN Z173 ARVOL |
| Aircraft | B738/M-SDE2E3FGHIRWXY/LB1 |
Departure
| Time | 2026-05-04 13:35 |
|---|---|
| Airport | Biarritz Pays Basque airport (LFBZ) |
Arrival
| Time | 2026-05-04 15:00 |
|---|---|
| Airport | Brussels South Charleroi Airport (EBCI) |
| Time | Latitude | Longitude | Altitude | Speed | Heading |
|---|---|---|---|---|---|
| 2026-05-04 13:05 | 43.47125 | -1.52947 | 244 ft | 0 kts | 359° |
| 2026-05-04 13:23 | 43.47125 | -1.52944 | 244 ft | 1 kts | 347° |
| 2026-05-04 13:23 | 43.47124 | -1.52946 | 244 ft | 2 kts | 321° |
| 2026-05-04 13:23 | 43.47105 | -1.52929 | 244 ft | 4 kts | 343° |
| 2026-05-04 13:24 | 43.47079 | -1.52928 | 244 ft | 4 kts | 19° |
| 2026-05-04 13:24 | 43.47058 | -1.52946 | 244 ft | 4 kts | 58° |
| 2026-05-04 13:24 | 43.47053 | -1.52968 | 244 ft | 1 kts | 89° |
| 2026-05-04 13:25 | 43.47053 | -1.52972 | 244 ft | 0 kts | 89° |
| 2026-05-04 13:28 | 43.47053 | -1.52969 | 244 ft | 1 kts | 89° |
| 2026-05-04 13:28 | 43.47053 | -1.52945 | 244 ft | 4 kts | 89° |
| 2026-05-04 13:29 | 43.47045 | -1.52910 | 244 ft | 4 kts | 123° |
| 2026-05-04 13:29 | 43.47024 | -1.52883 | 244 ft | 4 kts | 141° |
| 2026-05-04 13:29 | 43.47005 | -1.52857 | 244 ft | 4 kts | 128° |
| 2026-05-04 13:29 | 43.46992 | -1.52804 | 244 ft | 9 kts | 93° |
| 2026-05-04 13:30 | 43.46993 | -1.52697 | 244 ft | 12 kts | 89° |
| 2026-05-04 13:30 | 43.46995 | -1.52583 | 244 ft | 12 kts | 89° |
| 2026-05-04 13:30 | 43.46996 | -1.52473 | 244 ft | 11 kts | 89° |
| 2026-05-04 13:30 | 43.46996 | -1.52365 | 242 ft | 11 kts | 90° |
| 2026-05-04 13:31 | 43.46997 | -1.52260 | 241 ft | 11 kts | 93° |
| 2026-05-04 13:31 | 43.46957 | -1.52181 | 239 ft | 11 kts | 158° |
| 2026-05-04 13:31 | 43.46885 | -1.52172 | 238 ft | 10 kts | 175° |
| 2026-05-04 13:31 | 43.46840 | -1.52109 | 238 ft | 10 kts | 96° |
| 2026-05-04 13:32 | 43.46841 | -1.52015 | 238 ft | 10 kts | 89° |
| 2026-05-04 13:32 | 43.46842 | -1.51899 | 238 ft | 13 kts | 89° |
| 2026-05-04 13:32 | 43.46844 | -1.51759 | 235 ft | 17 kts | 89° |
| 2026-05-04 13:32 | 43.46844 | -1.51591 | 235 ft | 17 kts | 90° |
| 2026-05-04 13:33 | 43.46844 | -1.51428 | 235 ft | 17 kts | 88° |
| 2026-05-04 13:33 | 43.46848 | -1.51272 | 233 ft | 16 kts | 88° |
| 2026-05-04 13:33 | 43.46850 | -1.51121 | 234 ft | 15 kts | 89° |
| 2026-05-04 13:33 | 43.46866 | -1.51037 | 235 ft | 7 kts | 59° |
| 2026-05-04 13:34 | 43.46884 | -1.50987 | 236 ft | 4 kts | 86° |
| 2026-05-04 13:34 | 43.46864 | -1.50965 | 236 ft | 4 kts | 178° |
| 2026-05-04 13:34 | 43.46852 | -1.50986 | 235 ft | 3 kts | 261° |
| 2026-05-04 13:34 | 43.46852 | -1.51035 | 235 ft | 21 kts | 269° |
| 2026-05-04 13:35 | 43.46847 | -1.51585 | 235 ft | 92 kts | 269° |
| 2026-05-04 13:35 | 43.46797 | -1.54284 | 798 ft | 159 kts | 269° |
| 2026-05-04 13:35 | 43.46750 | -1.55805 | 1655 ft | 160 kts | 269° |
| 2026-05-04 13:36 | 43.46738 | -1.57344 | 2489 ft | 162 kts | 271° |
| 2026-05-04 13:36 | 43.46852 | -1.58891 | 3333 ft | 164 kts | 284° |
| 2026-05-04 13:36 | 43.47253 | -1.60393 | 4025 ft | 176 kts | 296° |
| 2026-05-04 13:36 | 43.47983 | -1.61852 | 4563 ft | 194 kts | 314° |
| 2026-05-04 13:37 | 43.49205 | -1.62813 | 4992 ft | 214 kts | 342° |
| 2026-05-04 13:37 | 43.50713 | -1.62952 | 5527 ft | 226 kts | 5° |
| 2026-05-04 13:37 | 43.52263 | -1.62131 | 5822 ft | 257 kts | 28° |
| 2026-05-04 13:37 | 43.53365 | -1.61336 | 6073 ft | 272 kts | 21° |
| 2026-05-04 13:38 | 43.55787 | -1.60235 | 7067 ft | 280 kts | 12° |
| 2026-05-04 13:38 | 43.57696 | -1.59550 | 7875 ft | 287 kts | 20° |
| 2026-05-04 13:38 | 43.59393 | -1.58049 | 8655 ft | 296 kts | 43° |
| 2026-05-04 13:38 | 43.60741 | -1.56123 | 9428 ft | 300 kts | 46° |
| 2026-05-04 13:39 | 43.62160 | -1.53979 | 10202 ft | 306 kts | 47° |
| 2026-05-04 13:39 | 43.63632 | -1.51738 | 10587 ft | 327 kts | 48° |
| 2026-05-04 13:39 | 43.65227 | -1.49318 | 10784 ft | 353 kts | 48° |
| 2026-05-04 13:39 | 43.66939 | -1.46740 | 10974 ft | 376 kts | 48° |
| 2026-05-04 13:40 | 43.68746 | -1.44031 | 11425 ft | 389 kts | 48° |
| 2026-05-04 13:40 | 43.70596 | -1.41267 | 12107 ft | 394 kts | 48° |
| 2026-05-04 13:40 | 43.72465 | -1.38478 | 12882 ft | 396 kts | 49° |
| 2026-05-04 13:40 | 43.74322 | -1.35707 | 13567 ft | 400 kts | 49° |
| 2026-05-04 13:41 | 43.76226 | -1.32862 | 14228 ft | 405 kts | 49° |
| 2026-05-04 13:41 | 43.78149 | -1.29985 | 14895 ft | 409 kts | 49° |
| 2026-05-04 13:41 | 43.80099 | -1.27087 | 15555 ft | 413 kts | 47° |
| 2026-05-04 13:42 | 43.84406 | -1.21694 | 16804 ft | 423 kts | 42° |
| 2026-05-04 13:42 | 43.86673 | -1.19064 | 17392 ft | 427 kts | 41° |
| 2026-05-04 13:42 | 43.88960 | -1.16411 | 17960 ft | 431 kts | 42° |
| 2026-05-04 13:42 | 43.91261 | -1.13712 | 18534 ft | 434 kts | 42° |
| 2026-05-04 13:43 | 43.93566 | -1.10976 | 19090 ft | 438 kts | 43° |
| 2026-05-04 13:43 | 43.95880 | -1.08203 | 19620 ft | 442 kts | 43° |
| 2026-05-04 13:43 | 43.98212 | -1.05394 | 20118 ft | 446 kts | 43° |
| 2026-05-04 13:43 | 44.00560 | -1.02555 | 20638 ft | 449 kts | 43° |
| 2026-05-04 13:44 | 44.02924 | -0.99692 | 21156 ft | 451 kts | 43° |
| 2026-05-04 13:44 | 44.05290 | -0.96825 | 21714 ft | 453 kts | 44° |
| 2026-05-04 13:44 | 44.07673 | -0.93934 | 22172 ft | 456 kts | 44° |
| 2026-05-04 13:44 | 44.10073 | -0.91020 | 22600 ft | 460 kts | 44° |
| 2026-05-04 13:45 | 44.12464 | -0.88114 | 23007 ft | 463 kts | 44° |
| 2026-05-04 13:45 | 44.14900 | -0.85151 | 23420 ft | 467 kts | 44° |
| 2026-05-04 13:45 | 44.17353 | -0.82163 | 23845 ft | 469 kts | 44° |
| 2026-05-04 13:45 | 44.19815 | -0.79162 | 24248 ft | 472 kts | 44° |
| 2026-05-04 13:46 | 44.22296 | -0.76133 | 24623 ft | 475 kts | 44° |
| 2026-05-04 13:46 | 44.24790 | -0.73085 | 24981 ft | 478 kts | 44° |
| 2026-05-04 13:46 | 44.27340 | -0.70065 | 25307 ft | 483 kts | 38° |
| 2026-05-04 13:46 | 44.30311 | -0.67828 | 25604 ft | 490 kts | 21° |
| 2026-05-04 13:47 | 44.33524 | -0.66212 | 25998 ft | 492 kts | 20° |
| 2026-05-04 13:47 | 44.36772 | -0.64618 | 26312 ft | 495 kts | 20° |
| 2026-05-04 13:47 | 44.40030 | -0.63013 | 26592 ft | 498 kts | 20° |
| 2026-05-04 13:47 | 44.43307 | -0.61375 | 26883 ft | 501 kts | 20° |
| 2026-05-04 13:48 | 44.46596 | -0.59706 | 27175 ft | 504 kts | 21° |
| 2026-05-04 13:48 | 44.49899 | -0.58010 | 27488 ft | 506 kts | 21° |
| 2026-05-04 13:48 | 44.53206 | -0.56298 | 27784 ft | 508 kts | 21° |
| 2026-05-04 13:48 | 44.56526 | -0.54572 | 28049 ft | 510 kts | 21° |
| 2026-05-04 13:49 | 44.59866 | -0.52832 | 28319 ft | 512 kts | 21° |
| 2026-05-04 13:49 | 44.63209 | -0.51089 | 28686 ft | 512 kts | 21° |
| 2026-05-04 13:49 | 44.66542 | -0.49351 | 29100 ft | 510 kts | 21° |
| 2026-05-04 13:49 | 44.69823 | -0.47638 | 29487 ft | 509 kts | 20° |
| 2026-05-04 13:50 | 44.73145 | -0.45902 | 29796 ft | 510 kts | 20° |
| 2026-05-04 13:50 | 44.76475 | -0.44161 | 30090 ft | 511 kts | 20° |
| 2026-05-04 13:50 | 44.79809 | -0.42415 | 30442 ft | 511 kts | 20° |
| 2026-05-04 13:50 | 44.83137 | -0.40671 | 30822 ft | 509 kts | 20° |
| 2026-05-04 13:51 | 44.86450 | -0.38932 | 31209 ft | 508 kts | 20° |
| 2026-05-04 13:51 | 44.89759 | -0.37193 | 31553 ft | 507 kts | 20° |
| 2026-05-04 13:51 | 44.93058 | -0.35457 | 31882 ft | 506 kts | 20° |
| 2026-05-04 13:51 | 44.96355 | -0.33720 | 32221 ft | 505 kts | 20° |
| 2026-05-04 13:52 | 45.02924 | -0.30254 | 32858 ft | 504 kts | 20° |
| 2026-05-04 13:52 | 45.06212 | -0.28515 | 33129 ft | 504 kts | 20° |
| 2026-05-04 13:52 | 45.09502 | -0.26774 | 33416 ft | 504 kts | 20° |
| 2026-05-04 13:53 | 45.12780 | -0.25036 | 33742 ft | 502 kts | 20° |
| 2026-05-04 13:53 | 45.16053 | -0.23299 | 33950 ft | 503 kts | 20° |
| 2026-05-04 13:53 | 45.19344 | -0.21550 | 33929 ft | 506 kts | 20° |
| 2026-05-04 13:54 | 45.29167 | -0.16318 | 33927 ft | 501 kts | 20° |
| 2026-05-04 13:55 | 45.38934 | -0.11097 | 33935 ft | 499 kts | 20° |
| 2026-05-04 13:55 | 45.48636 | -0.05890 | 33936 ft | 499 kts | 20° |
| 2026-05-04 13:56 | 45.55153 | -0.02382 | 33933 ft | 499 kts | 20° |
| 2026-05-04 13:57 | 45.64874 | 0.02866 | 33950 ft | 499 kts | 20° |
| 2026-05-04 13:58 | 45.77807 | 0.09880 | 33945 ft | 496 kts | 20° |
| 2026-05-04 13:58 | 45.87477 | 0.15146 | 33935 ft | 495 kts | 20° |
| 2026-05-04 13:59 | 45.92823 | 0.18067 | 33941 ft | 494 kts | 21° |
| 2026-05-04 14:00 | 46.02438 | 0.23334 | 33941 ft | 493 kts | 21° |
| 2026-05-04 14:00 | 46.12045 | 0.28616 | 33943 ft | 492 kts | 21° |
| 2026-05-04 14:01 | 46.18442 | 0.32145 | 33947 ft | 492 kts | 21° |
| 2026-05-04 14:02 | 46.28050 | 0.37461 | 33936 ft | 493 kts | 21° |
| 2026-05-04 14:02 | 46.34460 | 0.41019 | 33936 ft | 494 kts | 21° |
| 2026-05-04 14:03 | 46.40873 | 0.44588 | 33937 ft | 494 kts | 21° |
| 2026-05-04 14:03 | 46.47302 | 0.48175 | 33937 ft | 495 kts | 21° |
| 2026-05-04 14:04 | 46.56982 | 0.53471 | 33927 ft | 496 kts | 15° |
| 2026-05-04 14:04 | 46.63666 | 0.55756 | 33936 ft | 496 kts | 12° |
| 2026-05-04 14:05 | 46.73811 | 0.58939 | 33943 ft | 497 kts | 12° |
| 2026-05-04 14:06 | 46.80568 | 0.61155 | 33941 ft | 497 kts | 12° |
| 2026-05-04 14:06 | 46.87323 | 0.63404 | 33951 ft | 498 kts | 13° |
| 2026-05-04 14:07 | 46.94047 | 0.65644 | 33941 ft | 498 kts | 13° |
| 2026-05-04 14:07 | 47.00812 | 0.67900 | 33945 ft | 498 kts | 13° |
| 2026-05-04 14:08 | 47.07619 | 0.69687 | 33947 ft | 497 kts | 4° |
| 2026-05-04 14:08 | 47.14521 | 0.70354 | 33940 ft | 497 kts | 2° |
| 2026-05-04 14:09 | 47.24880 | 0.71296 | 33943 ft | 497 kts | 3° |
| 2026-05-04 14:10 | 47.35239 | 0.72384 | 33941 ft | 497 kts | 4° |
| 2026-05-04 14:10 | 47.42100 | 0.73110 | 33936 ft | 497 kts | 4° |
| 2026-05-04 14:11 | 47.49001 | 0.73940 | 33929 ft | 497 kts | 8° |
| 2026-05-04 14:11 | 47.55660 | 0.76626 | 33956 ft | 496 kts | 20° |
| 2026-05-04 14:11 | 47.58927 | 0.78308 | 33946 ft | 497 kts | 20° |
| 2026-05-04 14:12 | 47.65460 | 0.81666 | 33944 ft | 497 kts | 19° |
| 2026-05-04 14:13 | 47.75317 | 0.86553 | 33952 ft | 498 kts | 19° |
| 2026-05-04 14:13 | 47.81867 | 0.89788 | 33945 ft | 498 kts | 19° |
| 2026-05-04 14:14 | 47.88392 | 0.93048 | 33949 ft | 498 kts | 19° |
| 2026-05-04 14:14 | 47.98236 | 0.98042 | 33941 ft | 499 kts | 19° |
| 2026-05-04 14:15 | 48.11377 | 1.04727 | 33944 ft | 499 kts | 19° |
| 2026-05-04 14:16 | 48.21229 | 1.09759 | 33946 ft | 499 kts | 20° |
| 2026-05-04 14:17 | 48.31101 | 1.14791 | 33958 ft | 499 kts | 19° |
| 2026-05-04 14:18 | 48.40915 | 1.19807 | 33948 ft | 499 kts | 19° |
| 2026-05-04 14:19 | 48.54015 | 1.26539 | 33955 ft | 499 kts | 19° |
| 2026-05-04 14:19 | 48.60598 | 1.29891 | 33963 ft | 499 kts | 19° |
| 2026-05-04 14:20 | 48.67193 | 1.33201 | 33962 ft | 499 kts | 19° |
| 2026-05-04 14:20 | 48.73789 | 1.36526 | 33959 ft | 499 kts | 19° |
| 2026-05-04 14:21 | 48.83670 | 1.41542 | 33965 ft | 499 kts | 19° |
| 2026-05-04 14:21 | 48.90252 | 1.44896 | 33965 ft | 499 kts | 19° |
| 2026-05-04 14:22 | 48.96845 | 1.48240 | 33963 ft | 499 kts | 17° |
| 2026-05-04 14:22 | 49.03482 | 1.50198 | 33967 ft | 499 kts | 7° |
| 2026-05-04 14:23 | 49.13743 | 1.52387 | 33971 ft | 499 kts | 8° |
| 2026-05-04 14:24 | 49.20607 | 1.54010 | 33966 ft | 499 kts | 10° |
| 2026-05-04 14:24 | 49.23929 | 1.55384 | 33955 ft | 498 kts | 21° |
| 2026-05-04 14:24 | 49.27062 | 1.57630 | 33972 ft | 497 kts | 31° |
| 2026-05-04 14:24 | 49.29914 | 1.60587 | 33952 ft | 495 kts | 42° |
| 2026-05-04 14:25 | 49.32439 | 1.64171 | 33977 ft | 492 kts | 46° |
| 2026-05-04 14:25 | 49.39779 | 1.75238 | 33963 ft | 494 kts | 46° |
| 2026-05-04 14:26 | 49.44704 | 1.82507 | 33968 ft | 495 kts | 46° |
| 2026-05-04 14:26 | 49.49687 | 1.89821 | 33968 ft | 495 kts | 46° |
| 2026-05-04 14:27 | 49.54669 | 1.97170 | 33967 ft | 496 kts | 46° |
| 2026-05-04 14:27 | 49.59655 | 2.04548 | 33956 ft | 497 kts | 46° |
| 2026-05-04 14:28 | 49.64645 | 2.11953 | 33962 ft | 497 kts | 46° |
| 2026-05-04 14:28 | 49.69633 | 2.19377 | 33973 ft | 498 kts | 46° |
| 2026-05-04 14:29 | 49.74596 | 2.26787 | 33541 ft | 498 kts | 46° |
| 2026-05-04 14:29 | 49.79551 | 2.34207 | 33049 ft | 495 kts | 46° |
| 2026-05-04 14:30 | 49.82030 | 2.37927 | 32807 ft | 496 kts | 46° |
| 2026-05-04 14:30 | 49.84505 | 2.41648 | 32559 ft | 496 kts | 46° |
| 2026-05-04 14:30 | 49.89454 | 2.49106 | 31511 ft | 494 kts | 46° |
| 2026-05-04 14:31 | 49.91898 | 2.52794 | 31029 ft | 488 kts | 47° |
| 2026-05-04 14:31 | 49.96709 | 2.60075 | 29950 ft | 480 kts | 47° |
| 2026-05-04 14:32 | 50.01435 | 2.67272 | 28866 ft | 471 kts | 47° |
| 2026-05-04 14:32 | 50.03763 | 2.70830 | 28324 ft | 467 kts | 47° |
| 2026-05-04 14:32 | 50.06067 | 2.74358 | 27782 ft | 463 kts | 46° |
| 2026-05-04 14:32 | 50.08357 | 2.77868 | 27242 ft | 459 kts | 46° |
| 2026-05-04 14:33 | 50.10596 | 2.81304 | 26712 ft | 456 kts | 46° |
| 2026-05-04 14:33 | 50.12848 | 2.84765 | 26177 ft | 452 kts | 46° |
| 2026-05-04 14:33 | 50.15080 | 2.88200 | 25645 ft | 449 kts | 46° |
| 2026-05-04 14:33 | 50.17288 | 2.91601 | 25111 ft | 445 kts | 46° |
| 2026-05-04 14:34 | 50.19434 | 2.94912 | 24599 ft | 442 kts | 46° |
| 2026-05-04 14:34 | 50.21610 | 2.98274 | 24083 ft | 438 kts | 46° |
| 2026-05-04 14:34 | 50.23768 | 3.01613 | 23546 ft | 435 kts | 46° |
| 2026-05-04 14:34 | 50.25908 | 3.04928 | 23014 ft | 432 kts | 46° |
| 2026-05-04 14:35 | 50.28035 | 3.08228 | 22489 ft | 429 kts | 46° |
| 2026-05-04 14:35 | 50.30142 | 3.11501 | 21968 ft | 425 kts | 46° |
| 2026-05-04 14:35 | 50.32233 | 3.14753 | 21435 ft | 422 kts | 46° |
| 2026-05-04 14:35 | 50.34305 | 3.17981 | 20912 ft | 418 kts | 46° |
| 2026-05-04 14:36 | 50.36356 | 3.21178 | 20399 ft | 415 kts | 46° |
| 2026-05-04 14:36 | 50.38393 | 3.24357 | 19880 ft | 411 kts | 46° |
| 2026-05-04 14:36 | 50.40410 | 3.27510 | 19361 ft | 408 kts | 46° |
| 2026-05-04 14:36 | 50.42414 | 3.30636 | 18842 ft | 404 kts | 46° |
| 2026-05-04 14:37 | 50.44400 | 3.33733 | 18323 ft | 401 kts | 46° |
| 2026-05-04 14:37 | 50.46350 | 3.36775 | 17823 ft | 397 kts | 46° |
| 2026-05-04 14:37 | 50.48300 | 3.39821 | 17316 ft | 394 kts | 46° |
| 2026-05-04 14:37 | 50.50233 | 3.42845 | 16814 ft | 390 kts | 46° |
| 2026-05-04 14:38 | 50.52146 | 3.45843 | 16311 ft | 387 kts | 46° |
| 2026-05-04 14:38 | 50.53992 | 3.48893 | 15803 ft | 382 kts | 53° |
| 2026-05-04 14:38 | 50.55227 | 3.52534 | 15320 ft | 376 kts | 72° |
| 2026-05-04 14:38 | 50.55999 | 3.56437 | 14843 ft | 372 kts | 75° |
| 2026-05-04 14:39 | 50.56711 | 3.60330 | 14348 ft | 369 kts | 75° |
| 2026-05-04 14:39 | 50.57410 | 3.64204 | 13861 ft | 366 kts | 75° |
| 2026-05-04 14:39 | 50.58106 | 3.68035 | 13381 ft | 363 kts | 75° |
| 2026-05-04 14:40 | 50.59501 | 3.75599 | 12430 ft | 357 kts | 75° |
| 2026-05-04 14:40 | 50.60197 | 3.79335 | 11956 ft | 354 kts | 75° |
| 2026-05-04 14:40 | 50.60888 | 3.83040 | 11484 ft | 351 kts | 75° |
| 2026-05-04 14:40 | 50.61574 | 3.86718 | 11017 ft | 349 kts | 75° |
| 2026-05-04 14:41 | 50.62125 | 3.89673 | 10728 ft | 344 kts | 75° |
| 2026-05-04 14:41 | 50.62786 | 3.93222 | 10582 ft | 332 kts | 75° |
| 2026-05-04 14:41 | 50.64037 | 3.99963 | 10276 ft | 311 kts | 75° |
| 2026-05-04 14:42 | 50.65204 | 4.06274 | 10025 ft | 293 kts | 75° |
| 2026-05-04 14:42 | 50.65763 | 4.09304 | 9964 ft | 282 kts | 75° |
| 2026-05-04 14:42 | 50.66311 | 4.12284 | 9588 ft | 284 kts | 75° |
| 2026-05-04 14:43 | 50.66860 | 4.15270 | 9297 ft | 283 kts | 75° |
| 2026-05-04 14:43 | 50.67405 | 4.18237 | 8994 ft | 281 kts | 75° |
| 2026-05-04 14:43 | 50.67946 | 4.21193 | 8696 ft | 280 kts | 75° |
| 2026-05-04 14:43 | 50.68482 | 4.24140 | 8400 ft | 279 kts | 77° |
| 2026-05-04 14:44 | 50.68557 | 4.27142 | 8087 ft | 274 kts | 104° |
| 2026-05-04 14:44 | 50.67757 | 4.29803 | 7915 ft | 266 kts | 129° |
| 2026-05-04 14:44 | 50.66385 | 4.31692 | 7748 ft | 261 kts | 149° |
| 2026-05-04 14:44 | 50.64801 | 4.33072 | 7614 ft | 261 kts | 152° |
| 2026-05-04 14:45 | 50.63185 | 4.34401 | 7457 ft | 263 kts | 153° |
| 2026-05-04 14:45 | 50.61559 | 4.35734 | 7301 ft | 263 kts | 153° |
| 2026-05-04 14:45 | 50.59939 | 4.37069 | 7140 ft | 262 kts | 153° |
| 2026-05-04 14:45 | 50.58330 | 4.38404 | 6986 ft | 261 kts | 153° |
| 2026-05-04 14:46 | 50.56725 | 4.39740 | 6836 ft | 260 kts | 152° |
| 2026-05-04 14:46 | 50.55145 | 4.41060 | 6686 ft | 259 kts | 152° |
| 2026-05-04 14:46 | 50.53559 | 4.42385 | 6534 ft | 256 kts | 152° |
| 2026-05-04 14:46 | 50.52015 | 4.43676 | 6363 ft | 250 kts | 152° |
| 2026-05-04 14:47 | 50.50498 | 4.44944 | 6208 ft | 244 kts | 153° |
| 2026-05-04 14:47 | 50.49013 | 4.46184 | 6041 ft | 239 kts | 153° |
| 2026-05-04 14:47 | 50.47575 | 4.47453 | 5850 ft | 236 kts | 143° |
| 2026-05-04 14:47 | 50.46824 | 4.48728 | 5714 ft | 236 kts | 123° |
| 2026-05-04 14:48 | 50.46225 | 4.51075 | 5549 ft | 237 kts | 105° |
| 2026-05-04 14:48 | 50.45869 | 4.53639 | 5318 ft | 239 kts | 103° |
| 2026-05-04 14:48 | 50.45553 | 4.56176 | 5118 ft | 239 kts | 103° |
| 2026-05-04 14:48 | 50.45227 | 4.58721 | 5024 ft | 237 kts | 103° |
| 2026-05-04 14:49 | 50.44892 | 4.61249 | 5016 ft | 235 kts | 104° |
| 2026-05-04 14:49 | 50.44553 | 4.63755 | 5007 ft | 234 kts | 104° |
| 2026-05-04 14:49 | 50.44209 | 4.66268 | 5012 ft | 236 kts | 104° |
| 2026-05-04 14:49 | 50.43932 | 4.68784 | 4997 ft | 239 kts | 90° |
| 2026-05-04 14:50 | 50.44319 | 4.71328 | 4911 ft | 244 kts | 69° |
| 2026-05-04 14:50 | 50.45018 | 4.73796 | 4683 ft | 249 kts | 66° |
| 2026-05-04 14:50 | 50.45757 | 4.76238 | 4455 ft | 247 kts | 65° |
| 2026-05-04 14:50 | 50.46524 | 4.78646 | 4230 ft | 245 kts | 64° |
| 2026-05-04 14:51 | 50.47291 | 4.81029 | 3992 ft | 244 kts | 64° |
| 2026-05-04 14:51 | 50.48056 | 4.83395 | 3770 ft | 242 kts | 64° |
| 2026-05-04 14:51 | 50.48816 | 4.85750 | 3558 ft | 238 kts | 64° |
| 2026-05-04 14:51 | 50.49557 | 4.88036 | 3361 ft | 231 kts | 64° |
| 2026-05-04 14:52 | 50.50349 | 4.90172 | 3115 ft | 224 kts | 49° |
| 2026-05-04 14:52 | 50.51632 | 4.91420 | 2878 ft | 215 kts | 13° |
| 2026-05-04 14:52 | 50.53075 | 4.91299 | 2645 ft | 206 kts | 338° |
| 2026-05-04 14:52 | 50.54343 | 4.90353 | 2422 ft | 200 kts | 324° |
| 2026-05-04 14:53 | 50.55170 | 4.88692 | 2171 ft | 191 kts | 290° |
| 2026-05-04 14:53 | 50.55849 | 4.86981 | 2018 ft | 183 kts | 322° |
| 2026-05-04 14:53 | 50.56927 | 4.86058 | 2033 ft | 180 kts | 327° |
| 2026-05-04 14:53 | 50.57608 | 4.84497 | 2019 ft | 177 kts | 275° |
| 2026-05-04 14:54 | 50.57280 | 4.82677 | 2046 ft | 176 kts | 233° |
| 2026-05-04 14:54 | 50.56589 | 4.81072 | 1977 ft | 178 kts | 239° |
| 2026-05-04 14:54 | 50.55990 | 4.79349 | 1807 ft | 175 kts | 241° |
| 2026-05-04 14:54 | 50.55426 | 4.77685 | 2132 ft | 173 kts | 241° |
| 2026-05-04 14:55 | 50.54940 | 4.75933 | 2727 ft | 178 kts | 248° |
| 2026-05-04 14:55 | 50.54480 | 4.74119 | 2845 ft | 178 kts | 245° |
| 2026-05-04 14:55 | 50.54003 | 4.72358 | 2785 ft | 169 kts | 244° |
| 2026-05-04 14:55 | 50.53531 | 4.70689 | 2814 ft | 166 kts | 244° |
| 2026-05-04 14:56 | 50.53067 | 4.69063 | 2858 ft | 161 kts | 244° |
| 2026-05-04 14:56 | 50.52606 | 4.67450 | 2986 ft | 161 kts | 244° |
| 2026-05-04 14:56 | 50.52152 | 4.65841 | 3006 ft | 162 kts | 244° |
| 2026-05-04 14:56 | 50.51704 | 4.64258 | 3029 ft | 157 kts | 244° |
| 2026-05-04 14:57 | 50.51260 | 4.62673 | 3016 ft | 159 kts | 244° |
| 2026-05-04 14:57 | 50.50816 | 4.61089 | 3000 ft | 154 kts | 243° |
| 2026-05-04 14:57 | 50.50369 | 4.59550 | 2795 ft | 156 kts | 243° |
| 2026-05-04 14:57 | 50.49935 | 4.57989 | 2465 ft | 160 kts | 244° |
| 2026-05-04 14:58 | 50.49495 | 4.56359 | 2016 ft | 161 kts | 244° |
| 2026-05-04 14:58 | 50.48987 | 4.54835 | 1676 ft | 153 kts | 236° |
| 2026-05-04 14:58 | 50.48433 | 4.53462 | 1425 ft | 146 kts | 237° |
| 2026-05-04 14:58 | 50.47931 | 4.52098 | 1207 ft | 144 kts | 243° |
| 2026-05-04 14:59 | 50.47537 | 4.50655 | 1053 ft | 145 kts | 246° |
| 2026-05-04 14:59 | 50.47118 | 4.49217 | 875 ft | 144 kts | 244° |
| 2026-05-04 14:59 | 50.46295 | 4.46349 | 619 ft | 138 kts | 245° |
| 2026-05-04 15:00 | 50.45954 | 4.45174 | 614 ft | 98 kts | 246° |
| 2026-05-04 15:00 | 50.45814 | 4.44688 | 615 ft | 0 kts | 245° |
| 2026-05-04 15:00 | 50.45792 | 4.44613 | 615 ft | 21 kts | 244° |
| 2026-05-04 15:01 | 50.45666 | 4.44188 | 614 ft | 21 kts | 245° |
| 2026-05-04 15:01 | 50.45641 | 4.44017 | 620 ft | 13 kts | 303° |
| 2026-05-04 15:01 | 50.45714 | 4.44034 | 625 ft | 12 kts | 50° |
| 2026-05-04 15:01 | 50.45763 | 4.44134 | 623 ft | 11 kts | 52° |
| 2026-05-04 15:02 | 50.45807 | 4.44221 | 612 ft | 10 kts | 52° |
| 2026-05-04 15:02 | 50.45849 | 4.44305 | 612 ft | 10 kts | 52° |
| 2026-05-04 15:02 | 50.45892 | 4.44393 | 622 ft | 11 kts | 52° |
| 2026-05-04 15:02 | 50.45938 | 4.44501 | 622 ft | 13 kts | 63° |
| 2026-05-04 15:03 | 50.45983 | 4.44650 | 622 ft | 16 kts | 66° |
| 2026-05-04 15:03 | 50.46028 | 4.44807 | 612 ft | 15 kts | 66° |
| 2026-05-04 15:03 | 50.46068 | 4.44950 | 622 ft | 14 kts | 66° |
| 2026-05-04 15:03 | 50.46112 | 4.45096 | 620 ft | 15 kts | 66° |
| 2026-05-04 15:04 | 50.46153 | 4.45239 | 623 ft | 14 kts | 65° |
| 2026-05-04 15:04 | 50.46198 | 4.45395 | 621 ft | 17 kts | 65° |
| 2026-05-04 15:04 | 50.46245 | 4.45557 | 617 ft | 16 kts | 65° |
| 2026-05-04 15:04 | 50.46287 | 4.45702 | 619 ft | 14 kts | 65° |
| 2026-05-04 15:05 | 50.46325 | 4.45832 | 619 ft | 13 kts | 65° |
| 2026-05-04 15:05 | 50.46364 | 4.45964 | 612 ft | 14 kts | 65° |
| 2026-05-04 15:05 | 50.46405 | 4.46108 | 612 ft | 14 kts | 65° |
| 2026-05-04 15:05 | 50.46444 | 4.46241 | 621 ft | 12 kts | 65° |
| 2026-05-04 15:06 | 50.46480 | 4.46365 | 622 ft | 13 kts | 65° |
| 2026-05-04 15:06 | 50.46518 | 4.46496 | 615 ft | 13 kts | 65° |
| 2026-05-04 15:06 | 50.46553 | 4.46614 | 612 ft | 12 kts | 66° |
| 2026-05-04 15:07 | 50.46626 | 4.46793 | 616 ft | 8 kts | 11° |
| 2026-05-04 15:07 | 50.46674 | 4.46776 | 621 ft | 6 kts | 344° |
| 2026-05-04 15:07 | 50.46697 | 4.46780 | 612 ft | 0 kts | 20° |
| 2026-05-04 15:07 | 50.46699 | 4.46781 | 623 ft | 0 kts | 20° |
| 2026-05-04 15:08 | 50.46710 | 4.46789 | 612 ft | 5 kts | 30° |
| 2026-05-04 15:08 | 50.46719 | 4.46801 | 612 ft | 1 kts | 44° |
| 2026-05-04 15:08 | 50.46724 | 4.46811 | 612 ft | 3 kts | 52° |
| 2026-05-04 15:08 | 50.46755 | 4.46909 | 623 ft | 10 kts | 65° |
| 2026-05-04 15:09 | 50.46769 | 4.46945 | 612 ft | 0 kts | 41° |
| 2026-05-04 15:09 | 50.46772 | 4.46948 | 612 ft | 1 kts | 37° |
| 2026-05-04 15:09 | 50.46775 | 4.46950 | 612 ft | 1 kts | 23° |
| 2026-05-04 15:10 | 50.46782 | 4.46951 | 612 ft | 0 kts | 8° |
| 2026-05-04 15:10 | 50.46785 | 4.46951 | 612 ft | 1 kts | 3° |
| 2026-05-04 15:10 | 50.46792 | 4.46950 | 612 ft | 1 kts | 350° |
| 2026-05-04 15:11 | 50.46796 | 4.46948 | 612 ft | 1 kts | 347° |
| 2026-05-04 15:11 | 50.46801 | 4.46946 | 612 ft | 1 kts | 342° |
| 2026-05-04 15:11 | 50.46805 | 4.46943 | 612 ft | 1 kts | 339° |
| 2026-05-04 15:11 | 50.46810 | 4.46940 | 612 ft | 1 kts | 335° |
| 2026-05-04 15:12 | 50.46812 | 4.46938 | 612 ft | 0 kts | 333° |
| 2026-05-04 15:12 | 50.46815 | 4.46936 | 612 ft | 0 kts | 333° |
| 2026-05-04 15:12 | 50.46818 | 4.46933 | 612 ft | 0 kts | 334° |
| 2026-05-04 15:12 | 50.46820 | 4.46931 | 612 ft | 0 kts | 334° |
| 2026-05-04 15:13 | 50.46822 | 4.46930 | 612 ft | 0 kts | 334° |